»·PEaware :: N2RF KSNA-KBLH

N2RF :: KSNA-KBLH

FLIGHT INFORMATION

Flight Status: Arrived
Operator: Privately registered:
United States
More flights under this callsign
Pilot: Max W. (2591)
Aircraft: SOCATA TBM-900
(TBM9)
More flights by this aircraft type
Origin: KSNA John Wayne-Orange Co
United States
Destination: KBLH Blythe
United States
More flights between these airports :: More routes between these airports
Route: +MUSEL8 TRM J169 BLH
File this flight plan on PilotEdge
Remarks: GOOD EVENING GOLDSY. PLEASURE TO HAVE THE BEST CANADAIN CONTROLLER IN THE BIZ
Altitude:
(Current/Filed)
21,000ft
Speed:
(Current/Filed)
300kts
Departed: 10-Sep-19 04:16 PM
Arrived: 10-Sep-19 05:04 PM
Distance/Time
Traveled:
158nm/0:48
Distance/Time
To Go:
Arrived

Flight Plot

Page will automatically refresh every two minutes.

Flight plan parsing failed; only flown route is shown


Map Options




Map Legend


Flown Route
Filed Route
Departure Airport
Arrival Airport
Navaid (VOR, NDB)
Fix

Horizontal Profiles

Position Reports

Time Latitude Longitude Heading Altitude Ground
Speed
10-Sep-19 15:44 33.671888 -117.867009 205 59ft 0kts
10-Sep-19 15:45 33.671888 -117.867009 205 59ft 0kts
10-Sep-19 15:46 33.671888 -117.867009 205 59ft 0kts
10-Sep-19 15:48 33.671888 -117.867009 205 59ft 0kts
10-Sep-19 15:49 33.671888 -117.867009 205 59ft 0kts
10-Sep-19 15:50 33.671888 -117.867009 205 59ft 0kts
10-Sep-19 15:51 33.671888 -117.867009 205 59ft 0kts
10-Sep-19 15:52 33.671888 -117.867009 205 59ft 0kts
10-Sep-19 15:53 33.671888 -117.867009 205 59ft 0kts
10-Sep-19 15:54 33.671888 -117.867009 205 59ft 0kts
10-Sep-19 15:55 33.671888 -117.867009 205 59ft 0kts
10-Sep-19 15:56 33.671888 -117.867009 205 59ft 0kts
10-Sep-19 15:57 33.671888 -117.867009 205 59ft 0kts
10-Sep-19 15:58 33.671888 -117.867009 205 59ft 0kts
10-Sep-19 15:59 33.671888 -117.867009 205 59ft 0kts
10-Sep-19 16:00 33.671888 -117.867009 205 59ft 0kts
10-Sep-19 16:01 33.671888 -117.867009 205 59ft 0kts
10-Sep-19 16:02 33.671888 -117.867009 205 59ft 0kts
10-Sep-19 16:03 33.671888 -117.867009 205 59ft 0kts
10-Sep-19 16:03 33.671888 -117.867009 205 59ft 0kts
10-Sep-19 16:05 33.672086 -117.867025 42 59ft 12kts
10-Sep-19 16:06 33.672488 -117.866467 50 59ft 0kts
10-Sep-19 16:07 33.672559 -117.866364 45 59ft 0kts
10-Sep-19 16:07 33.672653 -117.866438 270 59ft 0kts
10-Sep-19 16:09 33.672654 -117.866452 271 59ft 0kts
10-Sep-19 16:10 33.673450 -117.866909 29 59ft 13kts
10-Sep-19 16:11 33.675383 -117.865645 30 59ft 7kts
10-Sep-19 16:11 33.677988 -117.864037 26 59ft 14kts
10-Sep-19 16:12 33.680701 -117.863146 298 59ft 0kts
10-Sep-19 16:14 33.680701 -117.863146 297 59ft 0kts
10-Sep-19 16:14 33.680769 -117.863751 208 59ft 0kts
10-Sep-19 16:15 33.670515 -117.870104 209 499ft 108kts
10-Sep-19 16:16 33.637171 -117.886791 190 2470ft 144kts
10-Sep-19 16:17 33.608192 -117.866561 101 4794ft 164kts
10-Sep-19 16:18 33.608239 -117.810590 91 6951ft 172kts
10-Sep-19 16:19 33.609281 -117.752025 90 8912ft 178kts
10-Sep-19 16:20 33.610368 -117.691389 89 10767ft 188kts
10-Sep-19 16:21 33.611473 -117.628606 89 12934ft 192kts
10-Sep-19 16:22 33.612602 -117.562571 89 14821ft 203kts
10-Sep-19 16:23 33.613738 -117.493307 89 16533ft 212kts
10-Sep-19 16:24 33.614884 -117.420872 89 18265ft 224kts
10-Sep-19 16:25 33.616040 -117.345142 90 20284ft 232kts
10-Sep-19 16:26 33.617241 -117.261199 90 21032ft 278kts
10-Sep-19 16:27 33.618621 -117.161955 90 21010ft 309kts
10-Sep-19 16:28 33.620022 -117.056775 90 20979ft 318kts
10-Sep-19 16:29 33.621246 -116.949461 90 20913ft 320kts
10-Sep-19 16:30 33.622525 -116.842831 90 20864ft 319kts
10-Sep-19 16:31 33.623642 -116.735885 90 20864ft 318kts
10-Sep-19 16:32 33.624664 -116.629674 90 20865ft 318kts
10-Sep-19 16:33 33.625602 -116.522814 90 20846ft 319kts
10-Sep-19 16:34 33.626444 -116.415959 90 20827ft 319kts
10-Sep-19 16:35 33.627195 -116.310187 91 20811ft 318kts
10-Sep-19 16:36 33.627848 -116.203965 91 20808ft 317kts
10-Sep-19 16:37 33.627010 -116.097917 93 20807ft 317kts
10-Sep-19 16:38 33.625083 -115.991737 92 20808ft 317kts
10-Sep-19 16:39 33.623097 -115.886711 93 20785ft 294kts
10-Sep-19 16:40 33.621245 -115.793212 93 18995ft 271kts
10-Sep-19 16:41 33.619484 -115.707653 93 17979ft 257kts
10-Sep-19 16:42 33.617635 -115.620794 92 17008ft 259kts
10-Sep-19 16:43 33.615740 -115.534542 92 16037ft 258kts
10-Sep-19 16:44 33.613786 -115.448313 92 15058ft 256kts
10-Sep-19 16:45 33.613734 -115.363093 89 14081ft 254kts
10-Sep-19 16:46 33.614593 -115.280633 90 13107ft 252kts
10-Sep-19 16:47 33.615432 -115.197004 90 12104ft 249kts
10-Sep-19 16:48 33.616232 -115.114106 91 11104ft 247kts
10-Sep-19 16:49 33.616939 -115.033573 93 8707ft 240kts
10-Sep-19 16:50 33.617568 -114.954222 93 5818ft 227kts
10-Sep-19 16:51 33.618087 -114.884600 94 3853ft 192kts
10-Sep-19 16:52 33.618910 -114.842801 108 3473ft 94kts
10-Sep-19 16:53 33.610304 -114.813770 104 2168ft 131kts
10-Sep-19 16:54 33.617324 -114.789962 93 2367ft 127kts
10-Sep-19 16:55 33.595728 -114.784409 313 2510ft 176kts
10-Sep-19 16:56 33.640257 -114.744134 51 2304ft 249kts
10-Sep-19 16:57 33.644244 -114.743553 81 2016ft 196kts
10-Sep-19 16:58 33.624658 -114.716712 176 681ft 89kts
10-Sep-19 16:59 33.615552 -114.738783 335 1229ft 131kts
10-Sep-19 17:00 33.652904 -114.742917 9 1579ft 149kts
10-Sep-19 17:01 33.656529 -114.718418 164 1050ft 107kts
10-Sep-19 17:02 33.633483 -114.716737 176 507ft 82kts
10-Sep-19 17:03 33.616061 -114.716015 179 391ft 0kts
10-Sep-19 17:04 33.616061 -114.716015 179 391ft 0kts
10-Sep-19 17:05 33.616061 -114.716015 178 394ft 0kts
10-Sep-19 17:06 33.615130 -114.714893 123 394ft 38kts
10-Sep-19 17:07 33.614311 -114.712787 0 394ft 0kts
10-Sep-19 17:08 33.614311 -114.712787 0 394ft 0kts

Navigation Log

Ident Type
Flight plan parsing failed, navigation log unavailable